Time;durP1;ratioP1;P1;durP2;ratioP2;P2;SDS_P1;SDS_P2;PMS_P1;PMS_P2;Temp;Humidity;BMP_temperature;BMP_pressure;BME280_temperature;BME280_humidity;BME280_pressure;Samples;Min_cycle;Max_cycle;Signal;HPM_P1;HPM_P2
2023/08/22 00:00:28;;;;;;;10.25;4.20;;;20.30;99.90;;;;;;5051801;28;20407;-53
2023/08/22 00:02:54;;;;;;;7.78;5.22;;;20.30;99.90;;;;;;5068674;28;20048;-52
2023/08/22 00:05:21;;;;;;;8.40;5.20;;;20.30;99.90;;;;;;5067088;28;20053;-50
2023/08/22 00:07:47;;;;;;;8.45;5.55;;;20.50;99.90;;;;;;5064575;28;20190;-49
2023/08/22 00:10:14;;;;;;;8.07;5.43;;;20.30;99.90;;;;;;5069603;28;20093;-51
2023/08/22 00:12:40;;;;;;;7.75;5.60;;;20.20;99.90;;;;;;5065363;28;20044;-52
2023/08/22 00:15:09;;;;;;;10.80;6.25;;;20.20;99.90;;;;;;5066133;28;20037;-52
2023/08/22 00:17:35;;;;;;;10.73;5.93;;;20.10;99.90;;;;;;5067820;28;20089;-51
2023/08/22 00:20:04;;;;;;;9.13;5.85;;;20.00;99.90;;;;;;5067919;28;20045;-50
2023/08/22 00:22:29;;;;;;;8.95;5.97;;;19.90;99.90;;;;;;5065441;28;20484;-51
2023/08/22 00:24:55;;;;;;;10.27;6.03;;;19.80;99.90;;;;;;5066045;28;20085;-50
2023/08/22 00:27:20;;;;;;;9.63;6.25;;;19.80;99.90;;;;;;5067448;28;20058;-53
2023/08/22 00:29:46;;;;;;;10.48;7.05;;;19.80;99.90;;;;;;5067024;28;20446;-50
2023/08/22 00:32:12;;;;;;;9.35;6.65;;;19.70;99.90;;;;;;5066905;28;20562;-53
2023/08/22 00:34:37;;;;;;;11.88;6.85;;;19.70;99.90;;;;;;5066364;28;20090;-50
2023/08/22 00:37:03;;;;;;;11.85;7.00;;;19.70;99.90;;;;;;5065744;28;20032;-53
2023/08/22 00:39:29;;;;;;;9.73;6.78;;;19.70;99.90;;;;;;5066232;28;20037;-49
2023/08/22 00:41:55;;;;;;;9.35;6.82;;;19.60;99.90;;;;;;5068508;28;20135;-50
2023/08/22 00:44:20;;;;;;;10.13;6.53;;;19.60;99.90;;;;;;5067509;28;20032;-48
2023/08/22 00:46:46;;;;;;;10.57;6.82;;;19.60;99.90;;;;;;5066251;28;20047;-52
2023/08/22 00:49:12;;;;;;;8.65;6.82;;;19.60;99.90;;;;;;5066518;28;20403;-51
2023/08/22 00:51:42;;;;;;;9.23;6.30;;;19.60;99.90;;;;;;5066385;28;20124;-50
2023/08/22 00:54:08;;;;;;;10.10;7.65;;;19.50;99.90;;;;;;5065809;28;20055;-51
2023/08/22 00:56:34;;;;;;;11.48;6.75;;;19.40;99.90;;;;;;5066640;28;20551;-52
2023/08/22 00:59:02;;;;;;;12.02;6.57;;;19.40;99.90;;;;;;5068076;28;20057;-51
2023/08/22 01:01:29;;;;;;;9.90;6.80;;;19.40;99.90;;;;;;5066702;28;20076;-53
2023/08/22 01:03:55;;;;;;;9.68;7.82;;;19.40;99.90;;;;;;5066145;28;20044;-52
2023/08/22 01:06:39;;;;;;;11.00;7.35;;;19.30;99.90;;;;;;5066970;28;20503;-52
2023/08/22 01:09:10;;;;;;;;;;;19.30;99.90;;;;;;5064198;28;20048;-51
2023/08/22 01:11:40;;;;;;;9.68;6.38;;;19.30;99.90;;;;;;5066929;28;20429;-52
2023/08/22 01:14:09;;;;;;;12.65;7.20;;;19.20;99.90;;;;;;5066936;28;20051;-50
2023/08/22 01:16:36;;;;;;;10.93;8.32;;;19.20;99.90;;;;;;5066938;28;20044;-51
2023/08/22 01:19:07;;;;;;;11.77;7.72;;;19.30;99.90;;;;;;5066509;28;20048;-50
2023/08/22 01:21:36;;;;;;;12.90;8.02;;;19.30;99.90;;;;;;5065909;28;20101;-51
2023/08/22 01:24:05;;;;;;;11.20;8.85;;;19.30;99.90;;;;;;5065758;28;20066;-54
2023/08/22 01:26:31;;;;;;;12.25;8.90;;;19.20;99.90;;;;;;5065971;28;20488;-52
2023/08/22 01:29:10;;;;;;;11.48;8.70;;;19.20;99.90;;;;;;5066006;28;20047;-53
2023/08/22 01:31:59;;;;;;;12.63;9.65;;;19.20;99.90;;;;;;5066245;28;20490;-51
2023/08/22 01:34:30;;;;;;;12.00;9.82;;;19.20;99.90;;;;;;5066374;28;20476;-53
2023/08/22 01:36:59;;;;;;;13.70;9.40;;;19.20;99.90;;;;;;5063346;28;20125;-51
2023/08/22 01:39:27;;;;;;;11.77;9.70;;;19.10;99.90;;;;;;5065832;28;20574;-51
2023/08/22 01:41:55;;;;;;;12.23;9.13;;;19.10;99.90;;;;;;5065603;28;20065;-53
2023/08/22 01:44:21;;;;;;;13.20;8.55;;;19.10;99.90;;;;;;5063835;28;20045;-50
2023/08/22 01:46:46;;;;;;;12.90;8.63;;;19.10;99.90;;;;;;5066103;28;20116;-52
2023/08/22 01:49:12;;;;;;;12.52;9.32;;;19.10;99.90;;;;;;5067991;28;20036;-52
2023/08/22 01:51:38;;;;;;;12.73;9.73;;;19.10;99.90;;;;;;5067772;28;20097;-54
2023/08/22 01:54:04;;;;;;;13.43;9.75;;;19.10;99.90;;;;;;5065763;28;20027;-51
2023/08/22 01:56:30;;;;;;;14.77;10.20;;;19.10;99.90;;;;;;5066459;28;20039;-52
2023/08/22 01:58:56;;;;;;;13.05;9.80;;;19.10;99.90;;;;;;5064408;28;20458;-51
2023/08/22 02:01:23;;;;;;;12.85;8.75;;;19.10;99.90;;;;;;5064134;28;20061;-52
2023/08/22 02:03:49;;;;;;;12.02;8.85;;;19.10;99.90;;;;;;5065830;28;20036;-53
2023/08/22 02:06:14;;;;;;;11.23;8.98;;;19.10;99.90;;;;;;5066042;28;20056;-51
2023/08/22 02:08:40;;;;;;;12.43;9.57;;;19.10;99.90;;;;;;5066414;28;20040;-53
2023/08/22 02:11:06;;;;;;;12.65;9.20;;;19.00;99.90;;;;;;5065804;28;20072;-52
2023/08/22 02:13:32;;;;;;;11.05;8.98;;;19.00;99.90;;;;;;5066782;28;20412;-51
2023/08/22 02:15:58;;;;;;;12.35;9.07;;;19.00;99.90;;;;;;5066654;28;20087;-54
2023/08/22 02:18:24;;;;;;;13.63;9.30;;;19.00;99.90;;;;;;5064325;28;20044;-50
2023/08/22 02:20:56;;;;;;;11.90;9.88;;;18.90;99.90;;;;;;5063930;28;20110;-54
2023/08/22 02:23:21;;;;;;;12.85;9.90;;;18.90;99.90;;;;;;5066957;28;20071;-51
2023/08/22 02:25:47;;;;;;;14.95;9.90;;;18.80;99.90;;;;;;5063611;28;20500;-48
2023/08/22 02:28:13;;;;;;;12.77;9.40;;;18.80;99.90;;;;;;5065174;28;20044;-52
2023/08/22 02:30:39;;;;;;;13.50;9.05;;;18.80;99.90;;;;;;5067604;28;20031;-53
2023/08/22 02:33:05;;;;;;;13.27;9.65;;;18.70;99.90;;;;;;5069626;28;20086;-51
2023/08/22 02:35:31;;;;;;;14.80;9.73;;;18.70;99.90;;;;;;5069730;28;20411;-51
2023/08/22 02:37:57;;;;;;;13.85;10.90;;;18.70;99.90;;;;;;5068665;28;20048;-50
2023/08/22 02:40:23;;;;;;;14.65;9.85;;;18.60;99.90;;;;;;5071321;28;20048;-53
2023/08/22 02:42:49;;;;;;;17.73;10.63;;;18.60;99.90;;;;;;5068546;28;20444;-53
2023/08/22 02:45:15;;;;;;;10.88;9.00;;;18.60;99.90;;;;;;5069052;28;20040;-51
2023/08/22 02:47:41;;;;;;;13.90;9.52;;;18.50;99.90;;;;;;5067837;28;20033;-51
2023/08/22 02:50:08;;;;;;;12.55;8.80;;;18.50;99.90;;;;;;5070506;28;20037;-53
2023/08/22 02:52:33;;;;;;;13.65;9.43;;;18.50;99.90;;;;;;5067361;28;20044;-53
2023/08/22 02:54:59;;;;;;;14.18;9.40;;;18.50;99.90;;;;;;5068727;28;20044;-52
2023/08/22 02:57:25;;;;;;;12.13;8.25;;;18.50;99.90;;;;;;5068762;28;20387;-52
2023/08/22 02:59:51;;;;;;;12.50;9.82;;;18.50;99.90;;;;;;5067731;28;20177;-52
2023/08/22 03:02:16;;;;;;;10.30;8.52;;;18.50;99.90;;;;;;5068603;28;20040;-52
2023/08/22 03:04:43;;;;;;;10.50;8.65;;;18.50;99.90;;;;;;5069204;28;20041;-53
2023/08/22 03:07:09;;;;;;;12.85;9.13;;;18.40;99.90;;;;;;5067703;28;20052;-54
2023/08/22 03:09:38;;;;;;;12.52;8.07;;;18.50;99.90;;;;;;5070512;28;20048;-50
2023/08/22 03:12:04;;;;;;;12.90;9.40;;;18.40;99.90;;;;;;5069642;28;20563;-52
2023/08/22 03:14:30;;;;;;;14.15;9.82;;;18.40;99.90;;;;;;5068761;28;20068;-53
2023/08/22 03:16:56;;;;;;;12.50;8.82;;;18.50;99.90;;;;;;5067441;28;20064;-51
2023/08/22 03:19:21;;;;;;;13.50;8.82;;;18.40;99.90;;;;;;5068577;28;20040;-50
2023/08/22 03:21:47;;;;;;;12.85;9.57;;;18.40;99.90;;;;;;5069147;28;20428;-50
2023/08/22 03:24:13;;;;;;;14.90;9.43;;;18.40;99.90;;;;;;5067393;28;20127;-52
2023/08/22 03:26:39;;;;;;;14.68;9.93;;;18.40;99.90;;;;;;5069920;28;20431;-51
2023/08/22 03:29:04;;;;;;;12.35;9.63;;;18.40;99.90;;;;;;5067349;28;20033;-51
2023/08/22 03:31:30;;;;;;;12.05;8.80;;;18.30;99.90;;;;;;5068178;28;20032;-53
2023/08/22 03:33:56;;;;;;;11.10;9.00;;;18.30;99.90;;;;;;5066099;28;20190;-53
2023/08/22 03:36:21;;;;;;;13.30;9.07;;;18.30;99.90;;;;;;5068682;28;20123;-51
2023/08/22 03:38:50;;;;;;;12.90;9.50;;;18.30;99.90;;;;;;5068815;28;20041;-52
2023/08/22 03:41:20;;;;;;;9.60;7.95;;;18.30;99.90;;;;;;5065234;28;20052;-51
2023/08/22 03:43:45;;;;;;;12.40;9.70;;;18.30;99.90;;;;;;5068387;28;20468;-53
2023/08/22 03:46:11;;;;;;;12.18;9.52;;;18.20;99.90;;;;;;5067717;28;20041;-52
2023/08/22 03:48:37;;;;;;;11.50;9.10;;;18.30;99.90;;;;;;5069197;28;20044;-52
2023/08/22 03:51:06;;;;;;;10.63;7.60;;;18.30;99.90;;;;;;5068099;28;20471;-54
2023/08/22 03:53:34;;;;;;;12.40;9.32;;;18.20;99.90;;;;;;5067674;28;20488;-53
2023/08/22 03:56:00;;;;;;;9.57;8.32;;;18.20;99.90;;;;;;5070093;28;20040;-54
2023/08/22 03:58:25;;;;;;;9.75;7.75;;;18.20;99.90;;;;;;5067050;28;20508;-52
2023/08/22 04:00:54;;;;;;;9.02;7.00;;;18.10;99.90;;;;;;5068021;28;20102;-49
2023/08/22 04:03:21;;;;;;;8.88;6.80;;;18.10;99.90;;;;;;5069142;28;20040;-50
2023/08/22 04:05:46;;;;;;;10.85;7.15;;;18.00;99.90;;;;;;5068833;28;20094;-53
2023/08/22 04:08:12;;;;;;;8.63;7.20;;;18.00;99.90;;;;;;5066704;28;20040;-51
2023/08/22 04:10:38;;;;;;;11.40;8.55;;;17.90;99.90;;;;;;5069282;28;20064;-50
2023/08/22 04:13:04;;;;;;;13.50;9.57;;;17.90;99.90;;;;;;5067874;28;20050;-50
2023/08/22 04:15:29;;;;;;;12.98;9.23;;;17.90;99.90;;;;;;5067298;28;20064;-52
2023/08/22 04:17:55;;;;;;;14.32;9.43;;;17.90;99.90;;;;;;5067623;28;20074;-55
2023/08/22 04:20:21;;;;;;;13.07;10.18;;;17.80;99.90;;;;;;5066079;28;20090;-50
2023/08/22 04:22:46;;;;;;;11.43;9.45;;;17.80;99.90;;;;;;5066268;28;20491;-53
2023/08/22 04:25:12;;;;;;;10.20;8.95;;;17.90;99.90;;;;;;5070122;28;20529;-53
2023/08/22 04:27:39;;;;;;;12.15;8.60;;;17.80;99.90;;;;;;5066578;28;20417;-53
2023/08/22 04:30:05;;;;;;;10.02;8.88;;;17.80;99.90;;;;;;5063887;28;20119;-53
2023/08/22 04:32:31;;;;;;;10.32;8.77;;;17.70;99.90;;;;;;5066521;28;20430;-51
2023/08/22 04:34:57;;;;;;;10.43;8.45;;;17.70;99.90;;;;;;5067294;28;20132;-52
2023/08/22 04:37:23;;;;;;;11.10;8.65;;;17.70;99.90;;;;;;5065462;28;20357;-50
2023/08/22 04:39:49;;;;;;;12.75;8.60;;;17.60;99.90;;;;;;5066206;28;20495;-49
2023/08/22 04:42:15;;;;;;;9.07;7.30;;;17.60;99.90;;;;;;5065387;28;20037;-54
2023/08/22 04:44:40;;;;;;;8.75;6.88;;;17.60;99.90;;;;;;5065537;28;20081;-53
2023/08/22 04:47:06;;;;;;;8.88;7.50;;;17.60;99.90;;;;;;5065712;28;20037;-53
2023/08/22 04:49:32;;;;;;;10.77;9.05;;;17.50;99.90;;;;;;5068215;28;20110;-54
2023/08/22 04:51:57;;;;;;;9.98;7.22;;;17.60;99.90;;;;;;5065822;28;20038;-53
2023/08/22 04:54:23;;;;;;;9.85;7.70;;;17.60;99.90;;;;;;5067073;28;20387;-53
2023/08/22 04:56:49;;;;;;;10.93;8.45;;;17.50;99.90;;;;;;5066766;28;20037;-53
2023/08/22 04:59:14;;;;;;;11.60;8.50;;;17.50;99.90;;;;;;5066175;28;20097;-53
2023/08/22 05:01:40;;;;;;;11.23;7.90;;;17.50;99.90;;;;;;5066143;28;20044;-52
2023/08/22 05:04:07;;;;;;;9.85;6.95;;;17.50;99.90;;;;;;5066085;28;20043;-51
2023/08/22 05:06:33;;;;;;;10.23;7.25;;;17.50;99.90;;;;;;5065888;28;20058;-52
2023/08/22 05:08:58;;;;;;;10.30;8.07;;;17.40;99.90;;;;;;5067582;28;20119;-53
2023/08/22 05:11:24;;;;;;;10.50;7.45;;;17.50;99.90;;;;;;5065055;28;20029;-51
2023/08/22 05:13:50;;;;;;;14.73;10.75;;;17.50;99.90;;;;;;5067901;28;20043;-56
2023/08/22 05:16:15;;;;;;;14.52;9.75;;;17.60;99.90;;;;;;5066788;28;20036;-52
2023/08/22 05:18:41;;;;;;;12.32;9.90;;;17.70;99.90;;;;;;5066115;28;20101;-50
2023/08/22 05:21:07;;;;;;;13.43;10.63;;;17.70;99.90;;;;;;5066328;28;20047;-52
2023/08/22 05:23:32;;;;;;;12.23;9.15;;;17.70;99.90;;;;;;5064893;28;20036;-50
2023/08/22 05:25:58;;;;;;;14.65;9.70;;;17.70;99.90;;;;;;5067390;28;20037;-53
2023/08/22 05:28:24;;;;;;;11.88;9.63;;;17.80;99.90;;;;;;5066360;28;20080;-52
2023/08/22 05:30:49;;;;;;;12.82;8.82;;;17.80;99.90;;;;;;5065588;28;20040;-52
2023/08/22 05:33:15;;;;;;;12.05;8.45;;;17.80;99.90;;;;;;5066280;28;20025;-52
2023/08/22 05:35:41;;;;;;;17.30;9.45;;;17.80;99.90;;;;;;5068254;28;20064;-49
2023/08/22 05:38:07;;;;;;;13.20;8.75;;;17.80;99.90;;;;;;5064887;28;20075;-52
2023/08/22 05:40:32;;;;;;;11.57;8.25;;;17.80;99.90;;;;;;5066316;28;20479;-52
2023/08/22 05:42:58;;;;;;;11.57;8.55;;;17.80;99.90;;;;;;5065410;28;20127;-53
2023/08/22 05:45:24;;;;;;;13.23;8.77;;;17.80;99.90;;;;;;5050868;28;20464;-50
2023/08/22 05:47:49;;;;;;;11.98;8.95;;;17.90;99.90;;;;;;5065695;28;20126;-49
2023/08/22 05:50:15;;;;;;;11.43;8.75;;;17.80;99.90;;;;;;5065496;28;20123;-51
2023/08/22 05:52:41;;;;;;;14.13;8.82;;;17.80;99.90;;;;;;5065637;28;20040;-53
2023/08/22 05:55:07;;;;;;;11.70;8.35;;;17.90;99.90;;;;;;5068859;28;20040;-53
2023/08/22 05:57:33;;;;;;;11.93;8.52;;;17.90;99.90;;;;;;5066847;28;20032;-51
2023/08/22 06:00:00;;;;;;;11.48;7.95;;;18.10;99.90;;;;;;5064735;28;20063;-53
2023/08/22 06:02:26;;;;;;;13.80;8.10;;;18.10;99.90;;;;;;5063972;28;20522;-54
2023/08/22 06:04:51;;;;;;;15.18;7.90;;;18.20;99.90;;;;;;5068972;28;20040;-53
2023/08/22 06:07:17;;;;;;;15.20;7.80;;;18.20;99.90;;;;;;5068688;28;20028;-52
2023/08/22 06:09:43;;;;;;;16.98;8.30;;;18.30;99.90;;;;;;5071328;28;20062;-54
2023/08/22 06:12:09;;;;;;;15.15;8.80;;;18.40;99.90;;;;;;5070443;28;20032;-53
2023/08/22 06:14:35;;;;;;;13.70;7.88;;;18.50;99.90;;;;;;5069075;28;20132;-49
2023/08/22 06:17:02;;;;;;;12.50;7.85;;;18.60;99.90;;;;;;5068649;28;20120;-52
2023/08/22 06:19:28;;;;;;;10.50;7.47;;;18.70;99.90;;;;;;5069612;28;20040;-51
2023/08/22 06:21:54;;;;;;;13.95;7.07;;;18.70;99.90;;;;;;5070975;28;20078;-51
2023/08/22 06:24:20;;;;;;;11.10;7.10;;;18.80;99.90;;;;;;5070415;28;20036;-52
2023/08/22 06:26:47;;;;;;;14.52;6.90;;;18.80;99.90;;;;;;5068455;28;20037;-52
2023/08/22 06:29:12;;;;;;;11.77;7.68;;;18.90;99.90;;;;;;5068746;28;20048;-54
2023/08/22 06:31:38;;;;;;;13.00;7.30;;;18.80;99.90;;;;;;5068975;28;20403;-51
2023/08/22 06:34:04;;;;;;;12.85;7.55;;;18.90;99.90;;;;;;5069204;28;20028;-52
2023/08/22 06:36:29;;;;;;;13.07;7.95;;;18.90;99.90;;;;;;5068563;28;20071;-49
2023/08/22 06:38:55;;;;;;;11.10;7.45;;;19.00;99.90;;;;;;5070597;28;20081;-53
2023/08/22 06:41:21;;;;;;;25.50;7.97;;;19.10;99.90;;;;;;5068727;28;20387;-53
2023/08/22 06:43:47;;;;;;;11.77;7.78;;;19.00;99.90;;;;;;5067442;28;20110;-54
2023/08/22 06:46:15;;;;;;;13.02;7.40;;;19.10;99.90;;;;;;5069819;28;20064;-51
2023/08/22 06:48:41;;;;;;;11.55;7.28;;;19.10;99.90;;;;;;5068872;28;20048;-52
2023/08/22 06:51:07;;;;;;;12.90;7.20;;;19.10;99.90;;;;;;5068981;28;20037;-53
2023/08/22 06:53:33;;;;;;;12.68;7.60;;;19.10;99.90;;;;;;5070105;28;20024;-48
2023/08/22 06:55:58;;;;;;;12.95;7.70;;;19.00;99.90;;;;;;5070478;28;20510;-51
2023/08/22 06:58:24;;;;;;;11.90;7.57;;;19.10;99.90;;;;;;5067654;28;20134;-52
2023/08/22 07:00:50;;;;;;;13.98;7.95;;;19.20;99.90;;;;;;5068206;28;20044;-53
2023/08/22 07:03:16;;;;;;;12.13;8.05;;;19.10;99.90;;;;;;5070313;28;20043;-53
2023/08/22 07:05:41;;;;;;;11.98;7.45;;;19.20;99.90;;;;;;5068117;28;20377;-51
2023/08/22 07:08:07;;;;;;;13.63;7.53;;;19.20;99.90;;;;;;5068391;28;20476;-51
2023/08/22 07:10:34;;;;;;;13.70;7.57;;;19.30;99.90;;;;;;5070437;28;20587;-54
2023/08/22 07:13:01;;;;;;;11.63;7.28;;;19.30;99.90;;;;;;5068360;28;20110;-53
2023/08/22 07:15:27;;;;;;;10.65;6.18;;;19.30;99.90;;;;;;5067371;28;20064;-53
2023/08/22 07:17:53;;;;;;;11.55;6.55;;;19.40;99.90;;;;;;5067562;28;20483;-50
2023/08/22 07:20:19;;;;;;;13.50;6.90;;;19.50;99.90;;;;;;5069450;28;20024;-52
2023/08/22 07:22:45;;;;;;;15.02;7.22;;;19.50;99.90;;;;;;5067275;28;20040;-51
2023/08/22 07:25:11;;;;;;;10.90;6.53;;;19.70;99.90;;;;;;5068920;28;20544;-52
2023/08/22 07:27:37;;;;;;;11.85;5.65;;;19.70;99.90;;;;;;5068827;28;20044;-52
2023/08/22 07:30:03;;;;;;;9.52;5.90;;;19.80;99.90;;;;;;5069761;28;20040;-53
2023/08/22 07:32:29;;;;;;;13.48;6.85;;;19.90;99.90;;;;;;5068267;28;20091;-53
2023/08/22 07:34:56;;;;;;;8.23;5.78;;;20.00;99.90;;;;;;5067895;28;20060;-52
2023/08/22 07:37:22;;;;;;;7.45;5.13;;;20.10;99.90;;;;;;5068369;28;20033;-52
2023/08/22 07:39:48;;;;;;;9.40;5.13;;;20.20;99.90;;;;;;5067257;28;20361;-52
2023/08/22 07:42:16;;;;;;;8.07;4.45;;;20.10;99.90;;;;;;5053234;28;20533;-54
2023/08/22 07:44:42;;;;;;;9.57;4.40;;;20.20;99.90;;;;;;5068918;28;20055;-52
2023/08/22 07:47:07;;;;;;;10.18;4.28;;;20.30;99.90;;;;;;5069730;28;20581;-55
2023/08/22 07:49:33;;;;;;;8.18;3.63;;;20.40;99.90;;;;;;5066447;28;20056;-52
2023/08/22 07:51:59;;;;;;;5.97;3.15;;;20.50;99.90;;;;;;5067801;28;20467;-52
2023/08/22 07:54:25;;;;;;;6.47;3.35;;;20.50;99.90;;;;;;5068088;28;20127;-52
2023/08/22 07:56:51;;;;;;;5.90;3.00;;;20.60;99.90;;;;;;5067445;28;20078;-53
2023/08/22 07:59:16;;;;;;;5.45;2.85;;;20.70;99.90;;;;;;5069087;28;20067;-48
2023/08/22 08:01:43;;;;;;;6.22;2.95;;;20.80;99.90;;;;;;5067178;28;20127;-53
2023/08/22 08:04:08;;;;;;;7.50;3.10;;;20.80;99.90;;;;;;5069470;28;20064;-50
2023/08/22 08:06:35;;;;;;;5.82;3.33;;;20.90;99.90;;;;;;5066612;28;20783;-54
2023/08/22 08:09:04;;;;;;;6.43;2.80;;;21.00;99.90;;;;;;5068010;28;20032;-51
2023/08/22 08:11:30;;;;;;;6.88;2.85;;;21.00;99.90;;;;;;5067441;28;20040;-51
2023/08/22 08:13:56;;;;;;;6.65;3.05;;;21.10;99.90;;;;;;5068852;28;20112;-52
2023/08/22 08:16:22;;;;;;;6.75;3.08;;;21.10;99.90;;;;;;5066759;28;20124;-51
2023/08/22 08:18:49;;;;;;;5.85;3.28;;;21.20;99.90;;;;;;5066114;28;20040;-50
2023/08/22 08:21:15;;;;;;;6.70;3.38;;;21.20;99.90;;;;;;5067082;28;20048;-51
2023/08/22 08:23:42;;;;;;;8.30;4.00;;;21.30;99.90;;;;;;5099372;28;20604;-50
2023/08/22 08:26:08;;;;;;;6.55;3.90;;;21.30;99.90;;;;;;5067646;28;20102;-51
2023/08/22 08:28:34;;;;;;;7.00;4.38;;;21.40;99.90;;;;;;5066198;28;20036;-53
2023/08/22 08:30:59;;;;;;;6.60;4.07;;;21.40;99.90;;;;;;5067277;28;20032;-51
2023/08/22 08:33:25;;;;;;;8.13;4.50;;;21.40;99.90;;;;;;5067577;28;20445;-52
2023/08/22 08:35:51;;;;;;;7.90;4.40;;;21.40;99.90;;;;;;5068339;28;20036;-54
2023/08/22 08:38:17;;;;;;;9.38;5.10;;;21.40;99.90;;;;;;5063987;28;20064;-52
2023/08/22 08:40:44;;;;;;;10.00;5.20;;;21.50;99.90;;;;;;5065630;28;20957;-54
2023/08/22 08:43:10;;;;;;;10.77;4.85;;;21.50;99.90;;;;;;5067945;28;20193;-50
2023/08/22 08:45:36;;;;;;;9.13;4.63;;;21.50;99.90;;;;;;5066367;28;20056;-54
2023/08/22 08:48:03;;;;;;;8.68;4.40;;;21.50;99.90;;;;;;5066585;28;20535;-52
2023/08/22 08:50:30;;;;;;;7.55;4.05;;;21.60;99.90;;;;;;5067546;28;20035;-53
2023/08/22 08:52:56;;;;;;;6.70;3.88;;;21.70;99.90;;;;;;5066424;28;20055;-54
2023/08/22 08:55:22;;;;;;;6.10;3.70;;;21.70;99.90;;;;;;5065605;28;20040;-51
2023/08/22 08:57:49;;;;;;;6.70;4.03;;;21.80;99.90;;;;;;5065667;28;20399;-52
2023/08/22 09:00:16;;;;;;;7.60;3.90;;;21.90;99.90;;;;;;5065768;28;20052;-52
2023/08/22 09:02:44;;;;;;;9.52;3.08;;;21.90;99.90;;;;;;5068359;28;20151;-52
2023/08/22 09:05:10;;;;;;;7.57;3.22;;;21.80;99.90;;;;;;5064260;28;20097;-51
2023/08/22 09:07:37;;;;;;;7.28;2.65;;;21.80;99.90;;;;;;5064069;28;20045;-53
2023/08/22 09:10:04;;;;;;;4.22;2.25;;;21.80;99.90;;;;;;5065796;28;20128;-52
2023/08/22 09:12:34;;;;;;;7.72;2.33;;;21.80;99.90;;;;;;5068033;28;20497;-54
2023/08/22 09:15:00;;;;;;;6.32;2.92;;;21.70;99.90;;;;;;5064925;28;20047;-51
2023/08/22 09:17:29;;;;;;;4.63;2.30;;;21.70;99.90;;;;;;5065222;28;20041;-52
2023/08/22 09:19:55;;;;;;;6.40;2.33;;;21.70;99.90;;;;;;5065909;28;20078;-52
2023/08/22 09:22:30;;;;;;;6.32;2.30;;;21.70;99.90;;;;;;5065430;28;20418;-52
2023/08/22 09:24:56;;;;;;;4.63;2.40;;;21.80;99.90;;;;;;5065768;28;20040;-51
2023/08/22 09:27:27;;;;;;;6.50;2.47;;;21.90;99.90;;;;;;5067847;28;20144;-49
2023/08/22 09:29:57;;;;;;;8.10;2.60;;;22.10;99.90;;;;;;5067695;28;20100;-53
2023/08/22 09:32:23;;;;;;;6.68;2.80;;;22.30;99.90;;;;;;5065691;28;20029;-52
2023/08/22 09:34:53;;;;;;;9.23;3.22;;;22.40;99.90;;;;;;5066401;28;20066;-51
2023/08/22 09:37:30;;;;;;;7.70;2.75;;;22.60;99.90;;;;;;5066836;28;20032;-52
2023/08/22 09:39:56;;;;;;;6.68;2.92;;;22.70;99.90;;;;;;5069604;28;20414;-54
2023/08/22 09:42:27;;;;;;;7.70;2.70;;;22.90;99.90;;;;;;5068241;28;20032;-54
2023/08/22 09:44:57;;;;;;;5.07;2.47;;;23.10;99.90;;;;;;5069143;28;20040;-48
2023/08/22 09:47:30;;;;;;;5.30;2.45;;;23.30;99.90;;;;;;5068253;28;20041;-53
2023/08/22 09:50:04;;;;;;;5.00;1.90;;;23.40;99.90;;;;;;5068703;28;20557;-51
2023/08/22 09:52:31;;;;;;;4.35;2.30;;;23.30;99.90;;;;;;5069376;28;20036;-49
2023/08/22 09:54:57;;;;;;;5.50;1.83;;;23.20;99.90;;;;;;5069553;28;20049;-49
2023/08/22 09:57:27;;;;;;;3.78;1.25;;;23.40;99.90;;;;;;5067689;28;20076;-51
2023/08/22 09:59:53;;;;;;;5.30;1.70;;;23.50;99.90;;;;;;5070282;28;20375;-51
2023/08/22 10:02:19;;;;;;;7.60;1.40;;;23.70;99.90;;;;;;5068523;28;20131;-50
2023/08/22 10:04:46;;;;;;;4.05;1.20;;;23.90;99.90;;;;;;5069521;28;20041;-51
2023/08/22 10:07:12;;;;;;;5.60;1.45;;;24.00;99.90;;;;;;5068452;28;20033;-51
2023/08/22 10:09:40;;;;;;;4.22;1.60;;;24.00;99.90;;;;;;5070273;28;20098;-48
2023/08/22 10:12:09;;;;;;;4.68;1.58;;;24.00;99.90;;;;;;5071419;28;20040;-50
2023/08/22 10:14:44;;;;;;;4.57;1.38;;;23.80;99.90;;;;;;5068408;28;20037;-50
2023/08/22 10:17:13;;;;;;;6.82;1.70;;;23.60;99.90;;;;;;5070689;28;20036;-50
2023/08/22 10:19:41;;;;;;;5.70;1.52;;;23.50;99.90;;;;;;5068078;28;20032;-53
2023/08/22 10:22:11;;;;;;;4.20;1.70;;;23.40;99.90;;;;;;5069727;28;20047;-53
2023/08/22 10:24:38;;;;;;;3.97;1.35;;;23.40;99.90;;;;;;5068651;28;20526;-52
2023/08/22 10:27:15;;;;;;;6.43;2.30;;;23.50;99.90;;;;;;5069818;28;20037;-53
2023/08/22 10:30:13;;;;;;;6.78;2.10;;;23.70;99.90;;;;;;5069594;28;20036;-51
2023/08/22 10:32:39;;;;;;;4.72;2.10;;;23.90;99.90;;;;;;5069553;28;20158;-52
2023/08/22 10:35:13;;;;;;;5.90;1.70;;;23.90;99.90;;;;;;5052250;28;20040;-50
2023/08/22 10:37:53;;;;;;;3.95;1.67;;;24.00;99.90;;;;;;5069091;28;20035;-52
2023/08/22 10:40:22;;;;;;;9.23;2.10;;;24.10;99.90;;;;;;5069616;28;20056;-51
2023/08/22 10:43:02;;;;;;;5.47;2.13;;;24.00;99.90;;;;;;5068821;28;20041;-50
2023/08/22 10:45:36;;;;;;;4.90;2.15;;;24.00;99.90;;;;;;5070534;28;20028;-52
2023/08/22 10:48:12;;;;;;;5.70;2.20;;;24.00;99.90;;;;;;5069008;28;20048;-51
2023/08/22 10:50:43;;;;;;;6.03;1.92;;;24.10;99.90;;;;;;5067032;28;20040;-50
2023/08/22 10:53:18;;;;;;;5.60;2.20;;;24.10;99.90;;;;;;5068649;28;20041;-48
2023/08/22 10:55:43;;;;;;;5.97;2.10;;;24.00;99.90;;;;;;5070215;28;20032;-51
2023/08/22 10:58:32;;;;;;;4.18;2.10;;;24.00;99.90;;;;;;5067006;28;20055;-52
2023/08/22 11:00:58;;;;;;;6.13;2.13;;;24.30;99.90;;;;;;5069098;28;20080;-51
2023/08/22 11:03:24;;;;;;;5.75;1.95;;;24.40;99.90;;;;;;5069094;28;20049;-53
2023/08/22 11:05:50;;;;;;;5.57;1.85;;;24.60;99.90;;;;;;5069354;28;20044;-52
2023/08/22 11:08:16;;;;;;;5.45;1.92;;;24.80;99.90;;;;;;5067557;28;20047;-52
2023/08/22 11:10:43;;;;;;;5.63;2.35;;;24.90;99.90;;;;;;5069175;28;20430;-51
2023/08/22 11:13:09;;;;;;;7.13;2.10;;;25.00;99.90;;;;;;5068946;28;20044;-53
2023/08/22 11:15:35;;;;;;;8.18;2.30;;;25.10;99.90;;;;;;5068038;28;20529;-52
2023/08/22 11:18:04;;;;;;;5.47;2.30;;;25.20;99.90;;;;;;5067562;28;20091;-53
2023/08/22 11:20:31;;;;;;;8.07;3.00;;;25.30;99.90;;;;;;5068610;28;20064;-50
2023/08/22 11:22:57;;;;;;;6.07;2.67;;;25.40;99.90;;;;;;5066494;28;20061;-51
2023/08/22 11:25:25;;;;;;;6.45;2.97;;;25.50;99.90;;;;;;5068154;28;20056;-50
2023/08/22 11:27:51;;;;;;;6.18;2.88;;;25.60;99.90;;;;;;5069747;28;20041;-52
2023/08/22 11:30:18;;;;;;;8.15;3.30;;;25.70;99.90;;;;;;5068305;28;20048;-51
2023/08/22 11:32:45;;;;;;;7.70;3.40;;;25.90;99.90;;;;;;5067755;28;20040;-52
2023/08/22 11:35:11;;;;;;;7.07;3.25;;;26.00;99.90;;;;;;5065644;28;20040;-52
2023/08/22 11:37:41;;;;;;;6.65;3.22;;;26.10;99.90;;;;;;5069825;28;20052;-54
2023/08/22 11:40:10;;;;;;;8.70;3.80;;;26.20;99.90;;;;;;5066910;28;20037;-52
2023/08/22 11:42:37;;;;;;;8.10;3.88;;;26.20;99.90;;;;;;5065256;28;20044;-54
2023/08/22 11:45:21;;;;;;;8.02;3.80;;;26.30;99.90;;;;;;5067186;28;20094;-53
2023/08/22 11:47:51;;;;;;;11.57;3.40;;;26.30;99.90;;;;;;5068474;28;20053;-57
2023/08/22 11:50:21;;;;;;;7.15;3.83;;;26.30;99.90;;;;;;5067022;28;20032;-53
2023/08/22 11:52:48;;;;;;;7.53;3.90;;;26.50;99.90;;;;;;5067219;28;20051;-53
2023/08/22 11:55:18;;;;;;;11.18;4.35;;;26.50;99.90;;;;;;5067383;28;20036;-51
2023/08/22 11:57:44;;;;;;;8.80;3.95;;;26.50;99.90;;;;;;5066157;28;20037;-51
2023/08/22 12:00:11;;;;;;;6.00;3.30;;;26.70;99.90;;;;;;5051395;28;20576;-51
2023/08/22 12:02:37;;;;;;;17.00;4.28;;;26.80;99.90;;;;;;5068081;28;20131;-53
2023/08/22 12:05:03;;;;;;;9.10;3.30;;;26.90;99.90;;;;;;5067816;28;20048;-51
2023/08/22 12:07:40;;;;;;;7.85;2.90;;;27.10;99.90;;;;;;5068168;28;20040;-52
2023/08/22 12:10:07;;;;;;;4.80;1.75;;;27.10;99.90;;;;;;5067536;28;20029;-53
2023/08/22 12:12:33;;;;;;;7.93;2.00;;;27.00;99.90;;;;;;5066284;28;20036;-52
2023/08/22 12:14:59;;;;;;;5.43;1.70;;;27.00;99.90;;;;;;5066895;28;20161;-53
2023/08/22 12:17:25;;;;;;;6.80;2.25;;;27.20;99.90;;;;;;5066361;28;20408;-54
2023/08/22 12:19:52;;;;;;;8.88;2.15;;;27.30;99.90;;;;;;5065972;28;20028;-53
2023/08/22 12:22:17;;;;;;;8.98;2.30;;;27.30;99.90;;;;;;5066847;28;20044;-53
2023/08/22 12:24:44;;;;;;;6.80;2.15;;;27.40;99.90;;;;;;5065997;28;20041;-54
2023/08/22 12:27:10;;;;;;;6.50;1.80;;;27.40;99.90;;;;;;5066584;28;20495;-53
2023/08/22 12:29:36;;;;;;;5.85;1.70;;;27.40;99.90;;;;;;5066821;28;20041;-52
2023/08/22 12:32:02;;;;;;;5.68;2.03;;;27.40;99.90;;;;;;5066119;28;20399;-51
2023/08/22 12:34:28;;;;;;;6.57;2.67;;;27.40;99.90;;;;;;5067919;28;20032;-52
2023/08/22 12:36:54;;;;;;;6.18;2.38;;;27.40;99.90;;;;;;5067049;28;20032;-54
2023/08/22 12:39:19;;;;;;;5.85;2.40;;;27.40;99.90;;;;;;5065978;28;20036;-53